Hempstead, Texas
Current Conditions -  °F | °C
As of 11:55 PM on Wednesday 17 Dec 2014 (Local Time) from K11R Reporting Station
Broken Clouds Broken Clouds  
Wind Chill: 60°   Ceiling: 900
Heat Index: 60°   Visibility: 10mi
Dew Point: 58°   Wind: 0mph
Humidity: 90%   Direction: NA
Pressure: 30.12"   Gusts: NA
Location:  30.1°N, 96.08°W
Report Text: K11R 180555Z AUTO 00000KT 10SM BKN009 BKN065 16/14 A3012 RMK AO2 T01580142 10160 20144 401610070
Loading
Personal Weather Stations






























Interactive Weather Map New forecast layout! Learn more

10-Day Weather Forecast

Advertisements
Track Severe Weather on mobile